createdAt,value
2018-07-11T00:00:14.266Z,21.62
2018-07-11T00:00:45.461Z,22.40
2018-07-11T00:01:16.689Z,23.32
2018-07-11T00:01:47.864Z,22.30
2018-07-11T00:02:19.102Z,21.93
2018-07-11T00:02:50.335Z,23.25
2018-07-11T00:03:21.564Z,24.20
2018-07-11T00:03:52.800Z,22.77
2018-07-11T00:04:23.980Z,22.55
2018-07-11T00:04:55.208Z,21.05
2018-07-11T00:05:26.415Z,20.37
2018-07-11T00:05:57.589Z,21.20
2018-07-11T00:06:28.812Z,20.25
2018-07-11T00:06:59.985Z,21.62
2018-07-11T00:07:31.160Z,23.57
2018-07-11T00:08:02.385Z,20.17
2018-07-11T00:08:33.616Z,21.02
2018-07-11T00:09:04.795Z,18.15
2018-07-11T00:09:35.972Z,20.57
2018-07-11T00:10:07.217Z,19.95
2018-07-11T00:10:38.408Z,19.45
2018-07-11T00:11:09.637Z,19.45
2018-07-11T00:11:41.005Z,19.87
2018-07-11T00:12:12.197Z,20.75
2018-07-11T00:12:43.434Z,20.00
2018-07-11T00:13:14.624Z,18.85
2018-07-11T00:13:45.804Z,18.37
2018-07-11T00:14:16.984Z,19.73
2018-07-11T00:14:48.210Z,20.95
2018-07-11T00:15:19.443Z,20.02
2018-07-11T00:15:50.625Z,20.02
2018-07-11T00:16:21.798Z,20.72
2018-07-11T00:16:53.097Z,21.85
2018-07-11T00:17:24.350Z,19.50
2018-07-11T00:17:55.576Z,19.98
2018-07-11T00:18:26.828Z,19.90
2018-07-11T00:18:58.090Z,20.77
2018-07-11T00:19:29.357Z,20.27
2018-07-11T00:20:00.552Z,20.82
2018-07-11T00:20:31.785Z,20.10
2018-07-11T00:21:03.007Z,20.00
2018-07-11T00:21:34.186Z,19.70
2018-07-11T00:22:05.415Z,21.02
2018-07-11T00:22:36.647Z,20.23
2018-07-11T00:23:07.832Z,19.30
2018-07-11T00:23:39.060Z,19.87
2018-07-11T00:24:10.245Z,19.25
2018-07-11T00:24:41.427Z,21.20
2018-07-11T00:25:12.663Z,20.60
2018-07-11T00:25:43.850Z,19.90
2018-07-11T00:26:15.032Z,19.37
2018-07-11T00:26:46.229Z,19.67
2018-07-11T00:27:17.461Z,18.15
2018-07-11T00:27:48.681Z,19.98
2018-07-11T00:28:19.868Z,19.37
2018-07-11T00:28:51.048Z,20.40
2018-07-11T00:29:22.221Z,19.57
2018-07-11T00:29:53.413Z,19.05
2018-07-11T00:30:24.584Z,18.37
2018-07-11T00:30:55.765Z,20.72
2018-07-11T00:31:26.955Z,20.17
2018-07-11T00:31:58.128Z,19.75
2018-07-11T00:32:29.362Z,19.45
2018-07-11T00:33:00.594Z,18.98
2018-07-11T00:33:31.801Z,21.00
2018-07-11T00:34:02.990Z,18.82
2018-07-11T00:34:34.175Z,19.40
2018-07-11T00:35:05.376Z,19.32
2018-07-11T00:35:36.563Z,19.23
2018-07-11T00:36:07.755Z,19.05
2018-07-11T00:36:38.968Z,18.55
2018-07-11T00:37:10.204Z,21.02
2018-07-11T00:37:41.441Z,19.25
2018-07-11T00:38:12.625Z,18.75
2018-07-11T00:38:43.803Z,18.73
2018-07-11T00:39:14.989Z,19.02
2018-07-11T00:39:46.168Z,20.88
2018-07-11T00:40:17.400Z,18.52
2018-07-11T00:40:48.592Z,18.35
2018-07-11T00:41:19.828Z,19.17
2018-07-11T00:41:51.064Z,18.40
2018-07-11T00:42:22.244Z,19.42
2018-07-11T00:42:53.456Z,18.05
2018-07-11T00:43:24.916Z,20.17
2018-07-11T00:43:56.089Z,18.82
2018-07-11T00:44:27.268Z,20.65
2018-07-11T00:44:58.447Z,18.62
2018-07-11T00:45:29.661Z,18.35
2018-07-11T00:46:00.889Z,19.98
2018-07-11T00:46:32.166Z,19.50
2018-07-11T00:47:03.360Z,18.57
2018-07-11T00:47:34.537Z,19.48
2018-07-11T00:48:05.715Z,18.27
2018-07-11T00:48:36.940Z,19.60
2018-07-11T00:49:08.178Z,19.77
2018-07-11T00:49:39.372Z,18.60
2018-07-11T00:50:10.548Z,18.25
2018-07-11T00:50:41.729Z,18.77
2018-07-11T00:51:12.900Z,19.30
2018-07-11T00:51:44.125Z,18.25
2018-07-11T00:52:15.309Z,18.60
2018-07-11T00:52:46.480Z,17.98
2018-07-11T00:53:17.716Z,18.23
2018-07-11T00:53:48.987Z,18.50
2018-07-11T00:54:20.222Z,18.80
2018-07-11T00:54:51.409Z,18.05
2018-07-11T00:55:22.592Z,19.92
2018-07-11T00:55:53.826Z,19.52
2018-07-11T00:56:25.007Z,19.15
2018-07-11T00:56:56.220Z,17.42
2018-07-11T00:57:27.396Z,18.60
2018-07-11T00:57:58.574Z,18.62
2018-07-11T00:58:29.748Z,17.35
2018-07-11T00:59:01.073Z,17.23
2018-07-11T00:59:32.267Z,18.73
2018-07-11T01:00:03.448Z,18.80
2018-07-11T01:00:34.685Z,18.37
2018-07-11T01:01:06.667Z,18.35
2018-07-11T01:01:37.942Z,17.67
2018-07-11T01:02:09.181Z,22.27
2018-07-11T01:02:40.376Z,19.32
2018-07-11T01:03:11.600Z,17.98
2018-07-11T01:03:42.884Z,16.80
2018-07-11T01:04:14.069Z,17.92
2018-07-11T01:04:45.245Z,18.77
2018-07-11T01:05:16.473Z,19.20
2018-07-11T01:05:47.669Z,18.10
2018-07-11T01:06:18.848Z,18.10
2018-07-11T01:06:50.088Z,17.95
2018-07-11T01:07:21.327Z,19.20
2018-07-11T01:07:52.513Z,18.60
2018-07-11T01:08:23.737Z,17.73
2018-07-11T01:08:55.025Z,17.17
2018-07-11T01:09:26.222Z,18.45
2018-07-11T01:09:57.442Z,20.50
2018-07-11T01:10:28.633Z,17.82
2018-07-11T01:10:59.810Z,17.42
2018-07-11T01:11:31.023Z,17.50
2018-07-11T01:12:02.198Z,17.40
2018-07-11T01:12:33.369Z,19.05
2018-07-11T01:13:04.611Z,16.67
2018-07-11T01:13:35.788Z,17.65
2018-07-11T01:14:07.017Z,18.25
2018-07-11T01:14:38.247Z,17.67
2018-07-11T01:15:09.431Z,17.50
2018-07-11T01:15:40.671Z,17.90
2018-07-11T01:16:11.858Z,17.15
2018-07-11T01:16:43.078Z,18.62
2018-07-11T01:17:14.270Z,17.52
2018-07-11T01:17:45.445Z,17.00
2018-07-11T01:18:16.625Z,17.87
2018-07-11T01:18:47.794Z,18.05
2018-07-11T01:19:19.029Z,18.40
2018-07-11T01:19:50.258Z,17.50
2018-07-11T01:20:21.508Z,17.50
2018-07-11T01:20:52.694Z,17.42
2018-07-11T01:21:23.866Z,18.20
2018-07-11T01:21:55.042Z,17.92
2018-07-11T01:22:26.257Z,18.20
2018-07-11T01:22:57.434Z,18.20
2018-07-11T01:23:28.680Z,17.70
2018-07-11T01:23:59.876Z,17.62
2018-07-11T01:24:31.096Z,17.55
2018-07-11T01:25:02.284Z,18.25
2018-07-11T01:25:33.472Z,16.70
2018-07-11T01:26:04.703Z,16.57
2018-07-11T01:26:35.941Z,18.25
2018-07-11T01:27:07.165Z,17.07
2018-07-11T01:27:38.344Z,19.52
2018-07-11T01:28:09.577Z,17.85
2018-07-11T01:28:40.770Z,19.05
2018-07-11T01:29:12.009Z,17.92
2018-07-11T01:29:43.241Z,17.45
2018-07-11T01:30:14.467Z,18.10
2018-07-11T01:30:45.713Z,17.62
2018-07-11T01:31:16.922Z,17.05
2018-07-11T01:31:48.104Z,16.85
2018-07-11T01:32:19.339Z,17.65
2018-07-11T01:32:50.532Z,19.80
2018-07-11T01:33:21.752Z,17.70
2018-07-11T01:33:52.993Z,18.05
2018-07-11T01:34:24.204Z,16.48
2018-07-11T01:34:55.432Z,18.17
2018-07-11T01:35:26.672Z,17.77
2018-07-11T01:35:57.884Z,17.70
2018-07-11T01:36:29.121Z,18.92
2018-07-11T01:37:00.308Z,16.75
2018-07-11T01:37:31.496Z,17.37
2018-07-11T01:38:02.717Z,18.00
2018-07-11T01:38:33.904Z,17.45
2018-07-11T01:39:05.084Z,17.00
2018-07-11T01:39:36.308Z,16.93
2018-07-11T01:40:07.481Z,19.20
2018-07-11T01:40:38.701Z,18.40
2018-07-11T01:41:09.952Z,17.60
2018-07-11T01:41:41.153Z,17.30
2018-07-11T01:42:12.437Z,17.57
2018-07-11T01:42:43.638Z,18.17
2018-07-11T01:43:14.819Z,18.65
2018-07-11T01:43:45.997Z,19.35
2018-07-11T01:44:17.224Z,17.07
2018-07-11T01:44:48.457Z,17.17
2018-07-11T01:45:19.656Z,18.50
2018-07-11T01:45:50.894Z,17.50
2018-07-11T01:46:22.137Z,17.85
2018-07-11T01:46:53.316Z,20.75
2018-07-11T01:47:24.549Z,18.20
2018-07-11T01:47:55.773Z,20.37
2018-07-11T01:48:27.010Z,17.98
2018-07-11T01:48:58.189Z,17.17
2018-07-11T01:49:29.421Z,16.87
2018-07-11T01:50:00.653Z,18.52
2018-07-11T01:50:31.828Z,17.92
2018-07-11T01:51:03.012Z,16.73
2018-07-11T01:51:34.195Z,16.20
2018-07-11T01:52:05.400Z,18.80
2018-07-11T01:52:36.649Z,17.57
2018-07-11T01:53:07.820Z,16.87
2018-07-11T01:53:39.004Z,16.57
2018-07-11T01:54:10.237Z,19.12
2018-07-11T01:54:41.425Z,17.57
2018-07-11T01:55:12.596Z,16.42
2018-07-11T01:55:43.814Z,16.25
2018-07-11T01:56:15.039Z,17.73
2018-07-11T01:56:46.220Z,16.60
2018-07-11T01:57:17.406Z,16.23
2018-07-11T01:57:48.583Z,17.52
2018-07-11T01:58:19.808Z,17.48
2018-07-11T01:58:51.058Z,16.67
2018-07-11T01:59:22.246Z,16.62
2018-07-11T01:59:53.521Z,18.15
2018-07-11T02:00:24.766Z,16.95
2018-07-11T02:00:56.002Z,17.57
2018-07-11T02:01:27.192Z,16.70
2018-07-11T02:01:58.410Z,18.35
2018-07-11T02:02:29.642Z,17.40
2018-07-11T02:03:00.917Z,16.48
2018-07-11T02:03:32.099Z,17.42
2018-07-11T02:04:03.303Z,17.35
2018-07-11T02:04:34.472Z,17.10
2018-07-11T02:05:05.655Z,16.62
2018-07-11T02:05:36.896Z,16.80
2018-07-11T02:06:08.085Z,17.82
2018-07-11T02:06:39.321Z,16.85
2018-07-11T02:07:10.562Z,16.73
2018-07-11T02:07:41.805Z,16.70
2018-07-11T02:08:13.036Z,19.48
2018-07-11T02:08:44.212Z,16.82
2018-07-11T02:09:15.430Z,16.30
2018-07-11T02:09:46.653Z,16.90
2018-07-11T02:10:17.834Z,16.20
2018-07-11T02:10:49.052Z,15.93
2018-07-11T02:11:20.293Z,16.00
2018-07-11T02:11:51.481Z,16.17
2018-07-11T02:12:22.661Z,16.48
2018-07-11T02:12:53.836Z,16.80
2018-07-11T02:13:25.012Z,16.55
2018-07-11T02:13:56.242Z,17.23
2018-07-11T02:14:27.520Z,17.92
2018-07-11T02:14:58.753Z,15.35
2018-07-11T02:15:29.944Z,17.23
2018-07-11T02:16:01.126Z,16.73
2018-07-11T02:16:32.446Z,16.57
2018-07-11T02:17:03.642Z,17.12
2018-07-11T02:17:34.869Z,16.00
2018-07-11T02:18:06.105Z,16.67
2018-07-11T02:18:37.324Z,16.15
2018-07-11T02:19:08.504Z,16.60
2018-07-11T02:19:39.736Z,15.98
2018-07-11T02:20:10.914Z,19.75
2018-07-11T02:20:42.141Z,16.50
2018-07-11T02:21:13.384Z,17.15
2018-07-11T02:21:44.576Z,16.55
2018-07-11T02:22:15.813Z,16.60
2018-07-11T02:22:47.002Z,16.82
2018-07-11T02:23:18.177Z,16.97
2018-07-11T02:23:49.452Z,15.93
2018-07-11T02:24:20.657Z,16.65
2018-07-11T02:24:51.825Z,17.25
2018-07-11T02:25:23.000Z,16.73
2018-07-11T02:25:54.179Z,16.40
2018-07-11T02:26:25.413Z,17.55
2018-07-11T02:26:56.614Z,16.65
2018-07-11T02:27:27.845Z,18.87
2018-07-11T02:27:59.095Z,17.40
2018-07-11T02:28:30.280Z,17.07
2018-07-11T02:29:01.496Z,16.87
2018-07-11T02:29:32.665Z,17.32
2018-07-11T02:30:03.835Z,16.82
2018-07-11T02:30:35.110Z,16.55
2018-07-11T02:31:06.304Z,16.87
2018-07-11T02:31:37.536Z,17.52
2018-07-11T02:32:08.717Z,17.48
2018-07-11T02:32:39.900Z,19.40
2018-07-11T02:33:11.113Z,18.10
2018-07-11T02:33:42.290Z,18.32
2018-07-11T02:34:13.510Z,17.73
2018-07-11T02:34:44.715Z,17.48
2018-07-11T02:35:15.949Z,17.23
2018-07-11T02:35:47.225Z,18.52
2018-07-11T02:36:18.473Z,17.40
2018-07-11T02:36:49.725Z,17.48
2018-07-11T02:37:20.922Z,17.65
2018-07-11T02:37:52.113Z,17.62
2018-07-11T02:38:23.350Z,17.77
2018-07-11T02:38:54.610Z,18.95
2018-07-11T02:39:25.837Z,17.10
2018-07-11T02:39:57.075Z,17.85
2018-07-11T02:40:28.273Z,18.82
2018-07-11T02:40:59.484Z,18.85
2018-07-11T02:41:30.711Z,17.35
2018-07-11T02:42:01.933Z,18.45
2018-07-11T02:42:33.118Z,17.60
2018-07-11T02:43:04.293Z,17.25
2018-07-11T02:43:35.517Z,17.98
2018-07-11T02:44:06.746Z,18.23
2018-07-11T02:44:37.991Z,17.85
2018-07-11T02:45:09.234Z,18.02
2018-07-11T02:45:40.417Z,17.62
2018-07-11T02:46:11.626Z,18.52
2018-07-11T02:46:42.852Z,18.35
2018-07-11T02:47:14.029Z,18.85
2018-07-11T02:47:45.258Z,17.23
2018-07-11T02:48:16.455Z,16.93
2018-07-11T02:48:47.641Z,17.25
2018-07-11T02:49:18.834Z,18.40
2018-07-11T02:49:50.013Z,19.52
2018-07-11T02:50:21.241Z,17.57
2018-07-11T02:50:52.432Z,17.42
2018-07-11T02:51:23.617Z,18.32
2018-07-11T02:51:54.839Z,18.32
2018-07-11T02:52:26.069Z,17.65
2018-07-11T02:52:57.245Z,18.27
2018-07-11T02:53:28.649Z,20.20
2018-07-11T02:53:59.873Z,18.23
2018-07-11T02:54:31.060Z,19.12
2018-07-11T02:55:02.297Z,19.52
2018-07-11T02:55:33.536Z,17.17
2018-07-11T02:56:04.769Z,17.65
2018-07-11T02:56:35.964Z,17.50
2018-07-11T02:57:07.233Z,18.37
2018-07-11T02:57:38.471Z,17.57
2018-07-11T02:58:09.719Z,19.65
2018-07-11T02:58:40.913Z,20.05
2018-07-11T02:59:12.104Z,18.15
2018-07-11T02:59:43.280Z,17.12
2018-07-11T03:00:14.469Z,18.10
2018-07-11T03:00:45.690Z,17.60
2018-07-11T03:01:16.872Z,16.82
2018-07-11T03:01:48.099Z,17.62
2018-07-11T03:02:19.391Z,20.30
2018-07-11T03:02:50.589Z,17.15
2018-07-11T03:03:21.772Z,17.95
2018-07-11T03:03:52.964Z,18.75
2018-07-11T03:04:24.144Z,16.62
2018-07-11T03:04:55.377Z,18.05
2018-07-11T03:05:26.666Z,17.55
2018-07-11T03:05:57.951Z,18.07
2018-07-11T03:06:29.128Z,17.30
2018-07-11T03:07:00.332Z,19.37
2018-07-11T03:07:31.508Z,17.57
2018-07-11T03:08:02.740Z,17.55
2018-07-11T03:08:33.937Z,16.67
2018-07-11T03:09:05.132Z,21.77
2018-07-11T03:09:36.397Z,19.30
2018-07-11T03:10:07.795Z,18.02
2018-07-11T03:10:39.031Z,19.73
2018-07-11T03:11:10.927Z,20.97
2018-07-11T03:11:42.125Z,18.73
2018-07-11T03:12:13.312Z,18.37
2018-07-11T03:12:44.484Z,18.98
2018-07-11T03:13:15.693Z,17.75
2018-07-11T03:13:46.881Z,17.20
2018-07-11T03:14:18.066Z,16.12
2018-07-11T03:14:49.249Z,18.50
2018-07-11T03:15:20.424Z,16.65
2018-07-11T03:15:51.602Z,17.95
2018-07-11T03:16:22.830Z,17.35
2018-07-11T03:16:54.021Z,18.87
2018-07-11T03:17:25.258Z,16.87
2018-07-11T03:17:56.497Z,18.70
2018-07-11T03:18:27.716Z,21.23
2018-07-11T03:18:58.953Z,19.50
2018-07-11T03:19:30.135Z,18.70
2018-07-11T03:20:01.346Z,16.27
2018-07-11T03:20:32.524Z,17.25
2018-07-11T03:21:03.717Z,16.45
2018-07-11T03:21:34.944Z,17.57
2018-07-11T03:22:06.145Z,17.25
2018-07-11T03:22:37.901Z,17.40
2018-07-11T03:23:09.132Z,16.82
2018-07-11T03:23:40.308Z,17.95
2018-07-11T03:24:11.496Z,16.40
2018-07-11T03:24:42.673Z,16.65
2018-07-11T03:25:13.885Z,16.93
2018-07-11T03:25:45.214Z,17.87
2018-07-11T03:26:16.453Z,18.17
2018-07-11T03:26:47.744Z,16.27
2018-07-11T03:27:18.926Z,16.82
2018-07-11T03:27:50.148Z,16.12
2018-07-11T03:28:21.386Z,17.17
2018-07-11T03:28:52.617Z,16.23
2018-07-11T03:29:23.892Z,16.87
2018-07-11T03:29:55.073Z,15.98
2018-07-11T03:30:26.313Z,15.78
2018-07-11T03:30:57.513Z,16.75
2018-07-11T03:31:29.042Z,15.10
2018-07-11T03:32:00.274Z,16.30
2018-07-11T03:32:31.527Z,19.57
2018-07-11T03:33:02.753Z,16.02
2018-07-11T03:33:34.032Z,15.70
2018-07-11T03:34:05.225Z,16.77
2018-07-11T03:34:36.440Z,16.10
2018-07-11T03:35:07.677Z,16.93
2018-07-11T03:35:38.864Z,16.27
2018-07-11T03:36:10.107Z,14.47
2018-07-11T03:36:41.345Z,15.68
2018-07-11T03:37:12.569Z,16.03
2018-07-11T03:37:43.837Z,14.90
2018-07-11T03:38:15.091Z,15.55
2018-07-11T03:38:46.276Z,13.90
2018-07-11T03:39:17.468Z,13.48
2018-07-11T03:39:48.696Z,14.27
2018-07-11T03:40:19.929Z,16.40
2018-07-11T03:40:51.124Z,15.30
2018-07-11T03:41:22.359Z,14.80
2018-07-11T03:41:53.597Z,15.10
2018-07-11T03:42:24.784Z,15.30
2018-07-11T03:42:56.013Z,14.40
2018-07-11T03:43:27.192Z,14.47
2018-07-11T03:43:58.429Z,14.93
2018-07-11T03:44:29.662Z,16.30
2018-07-11T03:45:00.891Z,14.87
2018-07-11T03:45:32.120Z,15.00
2018-07-11T03:46:03.387Z,16.03
2018-07-11T03:46:34.581Z,14.80
2018-07-11T03:47:05.797Z,14.90
2018-07-11T03:47:37.029Z,15.83
2018-07-11T03:48:08.269Z,14.30
2018-07-11T03:48:39.507Z,14.77
2018-07-11T03:49:10.686Z,14.43
2018-07-11T03:49:41.901Z,14.87
2018-07-11T03:50:13.072Z,15.77
2018-07-11T03:50:44.257Z,16.03
2018-07-11T03:51:15.433Z,15.00
2018-07-11T03:51:46.709Z,15.40
2018-07-11T03:52:17.896Z,14.50
2018-07-11T03:52:49.069Z,14.73
2018-07-11T03:53:20.330Z,15.00
2018-07-11T03:53:51.600Z,14.53
2018-07-11T03:54:22.796Z,13.70
2018-07-11T03:54:53.964Z,14.20
2018-07-11T03:55:25.151Z,17.37
2018-07-11T03:55:56.373Z,16.03
2018-07-11T03:56:27.552Z,14.13
2018-07-11T03:56:58.773Z,15.47
2018-07-11T03:57:30.010Z,14.03
2018-07-11T03:58:01.201Z,15.03
2018-07-11T03:58:32.376Z,14.57
2018-07-11T03:59:03.560Z,15.40
2018-07-11T03:59:34.732Z,14.27
2018-07-11T04:00:06.142Z,14.63
2018-07-11T04:00:37.345Z,14.27
2018-07-11T04:01:08.532Z,14.87
2018-07-11T04:01:39.732Z,15.03
2018-07-11T04:02:10.918Z,14.30
2018-07-11T04:02:42.185Z,14.17
2018-07-11T04:03:13.372Z,13.80
2018-07-11T04:03:44.561Z,14.70
2018-07-11T04:04:15.732Z,14.33
2018-07-11T04:04:46.978Z,15.17
2018-07-11T04:05:18.160Z,14.13
2018-07-11T04:05:49.384Z,15.80
2018-07-11T04:06:20.628Z,14.43
2018-07-11T04:06:51.864Z,14.23
2018-07-11T04:07:23.061Z,14.50
2018-07-11T04:07:54.228Z,15.13
2018-07-11T04:08:26.356Z,14.83
2018-07-11T04:08:57.588Z,14.33
2018-07-11T04:09:28.781Z,15.43
2018-07-11T04:09:59.993Z,15.47
2018-07-11T04:10:31.775Z,14.43
2018-07-11T04:11:03.048Z,15.57
2018-07-11T04:11:34.241Z,14.17
2018-07-11T04:12:05.428Z,14.57
2018-07-11T04:12:36.612Z,14.20
2018-07-11T04:13:07.857Z,15.03
2018-07-11T04:13:39.053Z,14.43
2018-07-11T04:14:10.276Z,15.90
2018-07-11T04:14:41.456Z,15.03
2018-07-11T04:15:12.686Z,14.13
2018-07-11T04:15:43.894Z,15.07
2018-07-11T04:16:15.068Z,14.40
2018-07-11T04:16:46.305Z,14.60
2018-07-11T04:17:17.504Z,14.93
2018-07-11T04:17:48.668Z,14.87
2018-07-11T04:18:19.844Z,15.13
2018-07-11T04:18:51.101Z,15.03
2018-07-11T04:19:22.336Z,15.70
2018-07-11T04:19:53.516Z,14.93
2018-07-11T04:20:24.697Z,15.67
2018-07-11T04:20:55.872Z,15.63
2018-07-11T04:21:27.054Z,15.80
2018-07-11T04:21:58.221Z,15.73
2018-07-11T04:22:30.000Z,15.10
2018-07-11T04:23:01.186Z,15.83
2018-07-11T04:23:32.408Z,15.20
2018-07-11T04:24:03.632Z,15.27
2018-07-11T04:24:34.858Z,15.83
2018-07-11T04:25:06.087Z,17.40
2018-07-11T04:25:37.272Z,15.67
2018-07-11T04:26:08.453Z,15.80
2018-07-11T04:26:39.632Z,15.00
2018-07-11T04:27:10.815Z,15.53
2018-07-11T04:27:42.058Z,15.33
2018-07-11T04:28:13.278Z,15.00
2018-07-11T04:28:44.486Z,16.37
2018-07-11T04:29:15.658Z,17.37
2018-07-11T04:29:46.888Z,15.63
2018-07-11T04:30:18.071Z,15.20
2018-07-11T04:30:49.258Z,15.50
2018-07-11T04:31:20.482Z,15.07
2018-07-11T04:31:51.668Z,15.60
2018-07-11T04:32:22.855Z,15.23
2018-07-11T04:32:54.029Z,15.13
2018-07-11T04:33:25.275Z,14.93
2018-07-11T04:33:56.428Z,15.37
2018-07-11T04:34:27.676Z,15.33
2018-07-11T04:34:58.862Z,15.03
2018-07-11T04:35:30.090Z,15.00
2018-07-11T04:36:01.339Z,15.67
2018-07-11T04:36:32.569Z,15.33
2018-07-11T04:37:03.744Z,15.13
2018-07-11T04:37:34.920Z,16.27
2018-07-11T04:38:06.094Z,14.57
2018-07-11T04:38:37.346Z,14.23
2018-07-11T04:39:08.648Z,14.83
2018-07-11T04:39:39.833Z,15.50
2018-07-11T04:40:11.078Z,15.03
2018-07-11T04:40:42.270Z,14.70
2018-07-11T04:41:13.457Z,16.07
2018-07-11T04:41:44.726Z,14.97
2018-07-11T04:42:15.957Z,14.77
2018-07-11T04:42:47.134Z,15.97
2018-07-11T04:43:18.324Z,14.70
2018-07-11T04:43:49.493Z,17.97
2018-07-11T04:44:20.729Z,14.53
2018-07-11T04:44:51.968Z,13.17
2018-07-11T04:45:23.572Z,14.30
2018-07-11T04:45:54.799Z,14.53
2018-07-11T04:46:25.989Z,14.13
2018-07-11T04:46:57.155Z,14.30
2018-07-11T04:47:29.218Z,14.77
2018-07-11T04:48:00.405Z,15.33
2018-07-11T04:48:31.581Z,14.20
2018-07-11T04:49:02.764Z,14.07
2018-07-11T04:49:33.945Z,15.23
2018-07-11T04:50:05.124Z,14.67
2018-07-11T04:50:36.298Z,14.40
2018-07-11T04:51:07.488Z,13.70
2018-07-11T04:51:38.677Z,14.30
2018-07-11T04:52:09.901Z,15.43
2018-07-11T04:52:41.102Z,14.47
2018-07-11T04:53:12.277Z,14.33
2018-07-11T04:53:43.516Z,14.63
2018-07-11T04:54:14.791Z,13.00
2018-07-11T04:54:46.087Z,14.03
2018-07-11T04:55:17.403Z,13.23
2018-07-11T04:55:50.632Z,13.73
2018-07-11T04:56:21.853Z,13.63
2018-07-11T04:56:53.034Z,13.10
2018-07-11T04:57:24.236Z,15.30
2018-07-11T04:57:56.253Z,13.83
2018-07-11T04:58:27.443Z,13.87
2018-07-11T04:58:58.616Z,13.90
2018-07-11T04:59:29.840Z,13.33
2018-07-11T05:00:01.021Z,13.93
2018-07-11T05:00:32.265Z,13.60
2018-07-11T05:01:03.504Z,14.47
2018-07-11T05:01:34.699Z,13.50
2018-07-11T05:02:05.876Z,13.80
2018-07-11T05:02:37.098Z,12.43
2018-07-11T05:03:08.276Z,12.97
2018-07-11T05:03:39.453Z,12.93
2018-07-11T05:04:10.625Z,13.07
2018-07-11T05:04:41.881Z,12.47
2018-07-11T05:05:13.097Z,12.77
2018-07-11T05:05:44.288Z,12.00
2018-07-11T05:06:15.534Z,12.23
2018-07-11T05:06:46.717Z,13.03
2018-07-11T05:07:17.897Z,12.93
2018-07-11T05:07:49.125Z,12.17
2018-07-11T05:08:20.348Z,13.00
2018-07-11T05:08:51.540Z,12.37
2018-07-11T05:09:22.805Z,14.07
2018-07-11T05:09:53.993Z,12.77
2018-07-11T05:10:25.181Z,12.30
2018-07-11T05:10:57.325Z,11.97
2018-07-11T05:11:28.537Z,14.17
2018-07-11T05:11:59.760Z,11.87
2018-07-11T05:12:30.949Z,12.43
2018-07-11T05:13:02.182Z,13.10
2018-07-11T05:13:33.376Z,12.17
2018-07-11T05:14:04.565Z,11.73
2018-07-11T05:14:35.796Z,12.57
2018-07-11T05:15:07.057Z,11.10
2018-07-11T05:15:38.286Z,13.40
2018-07-11T05:16:09.523Z,11.73
2018-07-11T05:16:40.698Z,11.40
2018-07-11T05:17:11.888Z,12.00
2018-07-11T05:17:43.093Z,11.60
2018-07-11T05:18:14.281Z,12.43
2018-07-11T05:18:45.465Z,11.53
2018-07-11T05:19:16.653Z,11.93
2018-07-11T05:19:47.876Z,12.40
2018-07-11T05:20:19.116Z,11.77
2018-07-11T05:20:50.344Z,12.10
2018-07-11T05:21:21.589Z,12.53
2018-07-11T05:21:52.760Z,12.00
2018-07-11T05:22:23.994Z,12.10
2018-07-11T05:22:55.181Z,12.13
2018-07-11T05:23:26.435Z,12.40
2018-07-11T05:23:57.676Z,11.80
2018-07-11T05:24:28.912Z,11.43
2018-07-11T05:25:00.211Z,12.07
2018-07-11T05:25:31.388Z,12.17
2018-07-11T05:26:02.598Z,12.67
2018-07-11T05:26:33.792Z,11.67
2018-07-11T05:27:04.966Z,11.73
2018-07-11T05:27:36.175Z,11.67
2018-07-11T05:28:07.393Z,11.57
2018-07-11T05:28:38.578Z,12.07
2018-07-11T05:29:09.762Z,11.80
2018-07-11T05:29:40.944Z,12.77
2018-07-11T05:30:12.168Z,12.53
2018-07-11T05:30:43.343Z,11.57
2018-07-11T05:31:14.514Z,11.47
2018-07-11T05:31:45.750Z,12.97
2018-07-11T05:32:16.993Z,12.63
2018-07-11T05:32:48.238Z,11.97
2018-07-11T05:33:19.452Z,11.87
2018-07-11T05:33:50.632Z,11.70
2018-07-11T05:34:21.865Z,12.03
2018-07-11T05:34:53.107Z,11.83
2018-07-11T05:35:24.337Z,11.67
2018-07-11T05:35:55.505Z,12.27
2018-07-11T05:36:26.877Z,11.93
2018-07-11T05:36:58.094Z,12.67
2018-07-11T05:37:29.269Z,12.37
2018-07-11T05:38:00.449Z,16.53
2018-07-11T05:38:31.737Z,13.07
2018-07-11T05:39:02.919Z,12.33
2018-07-11T05:39:34.100Z,11.00
2018-07-11T05:40:05.338Z,11.70
2018-07-11T05:40:36.520Z,11.97
2018-07-11T05:41:07.690Z,12.10
2018-07-11T05:41:38.894Z,13.03
2018-07-11T05:42:10.113Z,11.75
2018-07-11T05:42:41.285Z,19.10
2018-07-11T05:43:12.452Z,26.30
2018-07-11T05:43:43.685Z,11.22
2018-07-11T05:44:14.883Z,13.32
2018-07-11T05:44:46.441Z,43.78
2018-07-11T05:45:17.938Z,16.93
2018-07-11T05:45:49.149Z,13.43
2018-07-11T05:46:20.364Z,11.53
2018-07-11T05:46:51.607Z,12.05
2018-07-11T05:47:23.032Z,12.47
2018-07-11T05:47:54.308Z,11.13
2018-07-11T05:48:25.501Z,11.10
2018-07-11T05:48:56.716Z,11.97
2018-07-11T05:49:27.895Z,11.75
2018-07-11T05:49:59.073Z,11.30
2018-07-11T05:50:31.555Z,11.00
2018-07-11T05:51:02.814Z,10.60
2018-07-11T05:51:34.026Z,12.07
2018-07-11T05:52:05.344Z,11.63
2018-07-11T05:52:36.606Z,11.87
2018-07-11T05:53:07.874Z,12.57
2018-07-11T05:53:39.063Z,11.33
2018-07-11T05:54:10.280Z,11.00
2018-07-11T05:54:41.529Z,11.30
2018-07-11T05:55:12.712Z,11.30
2018-07-11T05:55:44.092Z,11.10
2018-07-11T05:56:15.330Z,10.93
2018-07-11T05:56:46.508Z,11.67
2018-07-11T05:57:17.683Z,11.70
2018-07-11T05:57:48.942Z,11.80
2018-07-11T05:58:20.184Z,11.70
2018-07-11T05:58:51.456Z,11.40
2018-07-11T05:59:22.773Z,12.20
2018-07-11T05:59:54.006Z,11.10
2018-07-11T06:00:25.192Z,10.98
2018-07-11T06:00:56.474Z,10.67
2018-07-11T06:01:27.709Z,11.40
2018-07-11T06:01:58.937Z,11.43
2018-07-11T06:02:30.127Z,11.23
2018-07-11T06:03:01.332Z,10.90
2018-07-11T06:03:32.569Z,11.00
2018-07-11T06:04:03.772Z,11.23
2018-07-11T06:04:34.991Z,12.40
2018-07-11T06:05:06.208Z,11.10
2018-07-11T06:05:37.420Z,11.57
2018-07-11T06:06:08.634Z,12.93
2018-07-11T06:06:39.873Z,11.77
2018-07-11T06:07:11.148Z,10.63
2018-07-11T06:07:42.332Z,11.00
2018-07-11T06:08:13.607Z,11.37
2018-07-11T06:08:44.849Z,10.17
2018-07-11T06:09:16.081Z,10.67
2018-07-11T06:09:47.257Z,10.60
2018-07-11T06:10:18.471Z,10.70
2018-07-11T06:10:49.656Z,9.85
2018-07-11T06:11:20.920Z,10.40
2018-07-11T06:11:52.097Z,10.13
2018-07-11T06:12:23.317Z,9.67
2018-07-11T06:12:54.503Z,10.20
2018-07-11T06:13:25.840Z,9.50
2018-07-11T06:13:57.033Z,9.30
2018-07-11T06:14:28.226Z,10.55
2018-07-11T06:14:59.403Z,10.50
2018-07-11T06:15:32.840Z,10.00
2018-07-11T06:16:06.255Z,9.77
2018-07-11T06:16:37.502Z,10.97
2018-07-11T06:17:08.733Z,9.73
2018-07-11T06:17:39.988Z,9.73
2018-07-11T06:18:47.800Z,10.10
2018-07-11T06:19:18.971Z,9.53
2018-07-11T06:19:50.155Z,9.83
2018-07-11T06:20:21.390Z,11.00
2018-07-11T06:20:52.612Z,10.78
2018-07-11T06:21:23.784Z,10.87
2018-07-11T06:21:54.969Z,10.40
2018-07-11T06:22:26.164Z,9.75
2018-07-11T06:22:57.347Z,10.55
2018-07-11T06:23:28.525Z,10.32
2018-07-11T06:24:00.897Z,9.93
2018-07-11T06:24:32.222Z,9.83
2018-07-11T06:25:03.615Z,10.85
2018-07-11T06:25:34.841Z,10.67
2018-07-11T06:26:11.822Z,9.43
2018-07-11T06:26:43.007Z,9.90
2018-07-11T06:27:14.267Z,11.17
2018-07-11T06:27:45.453Z,9.77
2018-07-11T06:28:18.234Z,12.73
2018-07-11T06:28:49.464Z,10.47
2018-07-11T06:29:20.668Z,10.23
2018-07-11T06:29:52.967Z,10.33
2018-07-11T06:30:24.149Z,10.90
2018-07-11T06:30:55.377Z,10.50
2018-07-11T06:31:26.577Z,10.20
2018-07-11T06:31:57.798Z,9.63
2018-07-11T06:32:29.080Z,10.37
2018-07-11T06:33:00.268Z,10.30
2018-07-11T06:33:31.487Z,10.20
2018-07-11T06:34:02.773Z,10.63
2018-07-11T06:34:33.979Z,10.33
2018-07-11T06:35:05.262Z,11.10
2018-07-11T06:35:36.449Z,10.30
2018-07-11T06:36:07.666Z,10.63
2018-07-11T06:36:38.878Z,10.50
2018-07-11T06:37:10.093Z,10.73
2018-07-11T06:37:41.280Z,10.20
2018-07-11T06:38:12.599Z,11.13
2018-07-11T06:38:43.853Z,9.33
2018-07-11T06:39:15.067Z,10.73
2018-07-11T06:39:46.287Z,11.20
2018-07-11T06:40:17.493Z,11.57
2018-07-11T06:40:48.705Z,10.57
2018-07-11T06:41:19.902Z,11.73
2018-07-11T06:41:51.105Z,10.90
2018-07-11T06:42:22.288Z,10.63
2018-07-11T06:42:53.470Z,11.63
2018-07-11T06:43:24.700Z,10.63